Time;durP1;ratioP1;P1;durP2;ratioP2;P2;SDS_P1;SDS_P2;PMS_P1;PMS_P2;Temp;Humidity;BMP_temperature;BMP_pressure;BME280_temperature;BME280_humidity;BME280_pressure;Samples;Min_cycle;Max_cycle;Signal;HPM_P1;HPM_P2
2023/12/09 00:01:15;;;;;;;83.05;34.45;;;8.60;99.90;;;;;;4935054;29;21040;-90
2023/12/09 00:03:41;;;;;;;80.57;34.20;;;8.60;99.90;;;;;;4934607;29;20875;-88
2023/12/09 00:06:06;;;;;;;80.90;33.63;;;8.60;99.90;;;;;;4935181;29;20418;-89
2023/12/09 00:08:32;;;;;;;77.38;32.70;;;8.60;99.90;;;;;;4935016;29;20413;-87
2023/12/09 00:10:58;;;;;;;83.05;34.38;;;8.60;99.90;;;;;;4934554;29;20445;-89
2023/12/09 00:13:23;;;;;;;80.87;35.10;;;8.60;99.90;;;;;;4935322;29;20414;-89
2023/12/09 00:15:49;;;;;;;84.57;33.42;;;8.60;99.90;;;;;;4934795;29;20856;-88
2023/12/09 00:18:15;;;;;;;83.35;32.72;;;8.60;99.90;;;;;;4935317;29;20425;-90
2023/12/09 00:20:40;;;;;;;75.88;33.25;;;8.60;99.90;;;;;;4950339;29;20453;-89
2023/12/09 00:23:07;;;;;;;72.13;31.73;;;8.60;99.90;;;;;;4934789;29;20461;-90
2023/12/09 00:25:33;;;;;;;77.00;32.38;;;8.60;99.90;;;;;;4934657;29;20417;-90
2023/12/09 00:27:59;;;;;;;79.28;32.33;;;8.60;99.90;;;;;;4950973;29;20422;-89
2023/12/09 00:30:25;;;;;;;73.50;31.73;;;8.70;99.90;;;;;;4935007;29;20456;-89
2023/12/09 00:32:50;;;;;;;69.78;29.55;;;8.90;99.90;;;;;;4934608;29;20414;-89
2023/12/09 00:35:16;;;;;;;65.70;29.45;;;8.70;99.90;;;;;;4934397;28;20410;-88
2023/12/09 00:37:42;;;;;;;64.32;28.55;;;8.70;99.90;;;;;;4953102;28;20419;-88
2023/12/09 00:40:08;;;;;;;63.50;28.13;;;8.70;99.90;;;;;;4954838;28;20430;-89
2023/12/09 00:42:34;;;;;;;69.40;29.40;;;8.70;99.90;;;;;;4934108;29;20504;-89
2023/12/09 00:44:59;;;;;;;67.23;29.37;;;8.70;99.90;;;;;;4934741;29;20773;-90
2023/12/09 00:47:25;;;;;;;64.03;28.35;;;8.90;99.90;;;;;;4934480;29;20410;-88
2023/12/09 00:49:51;;;;;;;67.03;29.20;;;8.60;99.90;;;;;;4950133;29;20434;-89
2023/12/09 00:52:16;;;;;;;69.00;30.30;;;8.80;99.90;;;;;;4949162;28;20501;-88
2023/12/09 00:54:42;;;;;;;64.20;29.23;;;8.70;99.90;;;;;;4933816;29;20492;-90
2023/12/09 00:57:07;;;;;;;75.80;31.23;;;8.70;99.90;;;;;;4939961;28;20412;-89
2023/12/09 00:59:33;;;;;;;70.10;31.10;;;8.70;99.90;;;;;;4953031;28;20491;-88
2023/12/09 01:01:59;;;;;;;74.28;30.60;;;8.70;99.90;;;;;;4968954;28;20495;-89
2023/12/09 01:04:25;;;;;;;68.38;30.20;;;8.70;99.90;;;;;;4952609;28;21032;-89
2023/12/09 01:06:50;;;;;;;67.55;28.42;;;8.70;99.90;;;;;;4969307;28;20467;-91
2023/12/09 01:09:16;;;;;;;64.10;30.20;;;8.80;99.90;;;;;;4953068;28;20491;-89
2023/12/09 01:11:42;;;;;;;67.63;29.48;;;8.70;99.90;;;;;;4952807;28;20592;-88
2023/12/09 01:14:08;;;;;;;59.50;29.10;;;8.70;99.90;;;;;;4969622;28;20424;-90
2023/12/09 01:16:33;;;;;;;63.78;30.40;;;8.70;99.90;;;;;;4952593;28;20420;-90
2023/12/09 01:18:59;;;;;;;62.83;29.30;;;8.70;99.90;;;;;;4952963;28;20416;-90
2023/12/09 01:21:24;;;;;;;61.53;28.23;;;8.70;99.90;;;;;;4952514;28;20412;-90
2023/12/09 01:23:50;;;;;;;64.10;29.98;;;8.70;99.90;;;;;;4953231;28;20415;-89
2023/12/09 01:26:16;;;;;;;65.57;30.45;;;8.70;99.90;;;;;;4953311;28;20404;-90
2023/12/09 01:28:41;;;;;;;67.43;29.70;;;8.70;99.90;;;;;;4968550;28;20411;-88
2023/12/09 01:31:07;;;;;;;57.75;27.05;;;8.70;99.90;;;;;;4969575;28;20442;-90
2023/12/09 01:33:33;;;;;;;61.65;28.95;;;8.90;99.90;;;;;;4952730;28;20413;-90
2023/12/09 01:35:58;;;;;;;62.33;28.53;;;8.70;99.90;;;;;;4950280;28;20426;-89
2023/12/09 01:38:24;;;;;;;56.47;27.20;;;8.70;99.90;;;;;;4933304;29;20887;-89
2023/12/09 01:40:54;;;;;;;57.30;26.48;;;8.70;99.90;;;;;;4933719;29;20793;-89
2023/12/09 01:43:19;;;;;;;60.20;25.53;;;8.70;99.90;;;;;;4933585;29;20428;-87
2023/12/09 01:45:45;;;;;;;54.30;26.83;;;8.70;99.90;;;;;;4933531;29;20879;-90
2023/12/09 01:48:11;;;;;;;60.72;25.55;;;8.70;99.90;;;;;;4937403;28;20823;-89
2023/12/09 01:50:37;;;;;;;58.53;24.58;;;8.70;99.90;;;;;;4951976;28;20443;-89
2023/12/09 01:53:03;;;;;;;51.55;25.67;;;8.60;99.90;;;;;;4952955;28;20408;-89
2023/12/09 01:55:28;;;;;;;56.55;25.40;;;8.70;99.90;;;;;;4938167;29;20764;-90
2023/12/09 01:57:54;;;;;;;60.65;25.15;;;8.70;99.90;;;;;;4933515;29;20912;-90
2023/12/09 02:00:20;;;;;;;52.63;23.38;;;8.60;99.90;;;;;;4932907;29;20458;-89
2023/12/09 02:02:46;;;;;;;53.92;24.67;;;8.60;99.90;;;;;;4948766;28;20406;-90
2023/12/09 02:05:12;;;;;;;51.40;24.02;;;8.60;99.90;;;;;;4933219;29;20513;-90
2023/12/09 02:07:38;;;;;;;49.42;23.95;;;8.60;99.90;;;;;;4932866;29;20925;-90
2023/12/09 02:10:04;;;;;;;49.70;22.20;;;8.60;99.90;;;;;;4933721;29;20521;-89
2023/12/09 02:12:39;;;;;;;51.03;22.63;;;8.60;99.90;;;;;;4932959;29;20422;-90
2023/12/09 02:15:11;;;;;;;53.45;23.50;;;8.60;99.90;;;;;;4933141;29;20857;-89
2023/12/09 02:17:46;;;;;;;52.70;22.75;;;8.60;99.90;;;;;;4932855;29;20402;-90
2023/12/09 02:20:12;;;;;;;49.50;23.50;;;8.60;99.90;;;;;;4932900;29;20888;-90
2023/12/09 02:22:38;;;;;;;55.83;24.27;;;8.60;99.90;;;;;;4933671;29;20758;-88
2023/12/09 02:25:04;;;;;;;50.97;22.67;;;8.60;99.90;;;;;;4932995;29;20418;-88
2023/12/09 02:27:54;;;;;;;56.05;23.88;;;8.60;99.90;;;;;;4938452;28;20400;-90
2023/12/09 02:30:45;;;;;;;49.05;23.52;;;8.60;99.90;;;;;;4951497;28;20428;-89
2023/12/09 02:33:14;;;;;;;50.65;22.95;;;8.60;99.90;;;;;;4952258;28;20429;-90
2023/12/09 02:35:42;;;;;;;51.13;23.60;;;8.60;99.90;;;;;;4952475;28;20408;-90
2023/12/09 02:38:09;;;;;;;55.38;25.30;;;8.60;99.90;;;;;;4951895;28;20420;-89
2023/12/09 02:40:36;;;;;;;54.45;24.70;;;8.60;99.90;;;;;;4968306;28;20439;-88
2023/12/09 02:43:03;;;;;;;52.03;25.15;;;9.00;99.90;;;;;;4951536;28;20499;-89
2023/12/09 02:45:29;;;;;;;49.70;24.85;;;8.50;99.90;;;;;;4952175;28;20768;-90
2023/12/09 02:47:55;;;;;;;54.15;25.42;;;8.60;99.90;;;;;;4951678;28;20439;-89
2023/12/09 02:50:20;;;;;;;49.97;23.83;;;8.60;99.90;;;;;;4951938;28;20435;-92
2023/12/09 02:52:46;;;;;;;51.50;24.20;;;8.80;99.90;;;;;;4951722;28;20408;-90
2023/12/09 02:55:12;;;;;;;51.53;25.60;;;8.80;99.90;;;;;;4943330;29;20416;-90
2023/12/09 02:57:37;;;;;;;52.40;25.20;;;8.60;99.90;;;;;;4933257;29;20405;-88
2023/12/09 03:00:05;;;;;;;55.57;24.10;;;8.50;99.90;;;;;;4931968;29;20686;-93
2023/12/09 03:02:31;;;;;;;52.40;24.70;;;8.60;99.90;;;;;;4932556;29;20418;-90
2023/12/09 03:04:58;;;;;;;51.93;25.50;;;8.70;99.90;;;;;;4932102;29;20998;-90
2023/12/09 03:07:23;;;;;;;53.70;23.60;;;8.50;99.90;;;;;;4948539;29;20604;-91
2023/12/09 03:09:49;;;;;;;51.30;25.13;;;8.50;99.90;;;;;;4932667;29;20442;-90
2023/12/09 03:12:16;;;;;;;53.15;24.58;;;8.50;99.90;;;;;;4932358;29;20795;-89
2023/12/09 03:14:42;;;;;;;51.15;24.33;;;8.50;99.90;;;;;;4950241;28;20436;-89
2023/12/09 03:17:09;;;;;;;48.55;23.85;;;8.50;99.90;;;;;;4951400;29;20413;-89
2023/12/09 03:19:35;;;;;;;51.50;24.15;;;8.70;99.90;;;;;;4936192;29;20418;-90
2023/12/09 03:22:01;;;;;;;47.25;24.67;;;8.50;99.90;;;;;;4935054;29;20422;-90
2023/12/09 03:24:27;;;;;;;47.10;23.33;;;8.70;99.90;;;;;;4935203;29;20409;-90
2023/12/09 03:26:53;;;;;;;46.97;23.13;;;8.50;99.90;;;;;;4935091;29;20912;-90
2023/12/09 03:29:19;;;;;;;50.75;24.10;;;8.40;99.90;;;;;;4935226;29;20413;-91
2023/12/09 03:31:45;;;;;;;47.15;23.85;;;8.40;99.90;;;;;;4936318;29;20425;-90
2023/12/09 03:34:12;;;;;;;46.50;23.80;;;8.40;99.90;;;;;;4936215;29;20429;-88
2023/12/09 03:36:38;;;;;;;48.90;24.95;;;8.40;99.90;;;;;;4952643;29;20734;-90
2023/12/09 03:39:04;;;;;;;53.57;24.47;;;8.30;99.90;;;;;;4935708;29;20479;-90
2023/12/09 03:41:29;;;;;;;50.37;24.43;;;8.30;99.90;;;;;;4936326;29;20409;-92
2023/12/09 03:43:55;;;;;;;47.45;23.45;;;8.30;99.90;;;;;;4935374;29;20414;-90
2023/12/09 03:46:21;;;;;;;53.13;25.02;;;8.30;99.90;;;;;;4935894;29;20496;-90
2023/12/09 03:48:47;;;;;;;49.00;24.65;;;8.30;99.90;;;;;;4936140;29;20917;-89
2023/12/09 03:51:13;;;;;;;46.28;22.85;;;8.20;99.90;;;;;;4935624;29;20434;-91
2023/12/09 03:53:41;;;;;;;43.47;24.33;;;8.20;99.90;;;;;;4936117;29;20492;-89
2023/12/09 03:56:07;;;;;;;49.78;24.42;;;8.20;99.90;;;;;;4960720;28;20404;-91
2023/12/09 03:58:33;;;;;;;53.67;25.43;;;8.20;99.90;;;;;;4955123;28;20577;-89
2023/12/09 04:00:58;;;;;;;45.20;23.60;;;8.10;99.90;;;;;;4954287;28;20499;-88
2023/12/09 04:03:24;;;;;;;52.85;25.25;;;8.20;99.90;;;;;;4954753;28;20408;-92
2023/12/09 04:05:50;;;;;;;52.15;25.05;;;8.10;99.90;;;;;;4955768;28;20406;-89
2023/12/09 04:08:15;;;;;;;48.33;25.33;;;8.30;99.90;;;;;;4935403;29;20410;-89
2023/12/09 04:10:41;;;;;;;52.63;24.43;;;8.20;99.90;;;;;;4935544;29;20437;-89
2023/12/09 04:13:07;;;;;;;49.92;24.02;;;8.20;99.90;;;;;;4934845;29;20421;-90
2023/12/09 04:15:32;;;;;;;44.22;23.05;;;8.20;99.90;;;;;;4935796;29;20449;-92
2023/12/09 04:17:58;;;;;;;46.67;24.73;;;8.50;99.90;;;;;;4934470;29;20420;-89
2023/12/09 04:20:24;;;;;;;50.87;24.93;;;8.40;99.90;;;;;;4950819;29;20406;-89
2023/12/09 04:22:49;;;;;;;48.75;23.95;;;8.20;99.90;;;;;;4934926;29;20440;-90
2023/12/09 04:25:15;;;;;;;45.70;23.70;;;8.20;99.90;;;;;;4936579;28;20924;-88
2023/12/09 04:27:41;;;;;;;48.03;23.83;;;8.20;99.90;;;;;;4954646;28;20412;-90
2023/12/09 04:30:08;;;;;;;49.45;24.00;;;8.30;99.90;;;;;;4954409;28;20439;-89
2023/12/09 04:32:35;;;;;;;53.45;25.48;;;8.20;99.90;;;;;;4954504;28;20931;-89
2023/12/09 04:35:00;;;;;;;49.40;23.90;;;8.20;99.90;;;;;;4946369;29;20422;-90
2023/12/09 04:37:26;;;;;;;43.20;23.00;;;8.20;99.90;;;;;;4935327;29;20457;-90
2023/12/09 04:39:52;;;;;;;46.88;23.90;;;8.10;99.90;;;;;;4934243;29;20408;-90
2023/12/09 04:42:18;;;;;;;51.20;24.60;;;8.20;99.90;;;;;;4934863;29;20929;-90
2023/12/09 04:44:44;;;;;;;43.80;22.83;;;8.20;99.90;;;;;;4947254;28;20424;-90
2023/12/09 04:47:10;;;;;;;45.03;22.98;;;8.20;99.90;;;;;;4953874;28;20814;-89
2023/12/09 04:49:35;;;;;;;44.03;23.63;;;8.20;99.90;;;;;;4951375;28;20548;-89
2023/12/09 04:52:01;;;;;;;46.33;22.90;;;8.40;99.90;;;;;;4950253;29;20820;-90
2023/12/09 04:54:27;;;;;;;52.17;22.73;;;8.30;99.90;;;;;;4950582;29;20818;-88
2023/12/09 04:56:52;;;;;;;47.87;22.67;;;8.30;99.90;;;;;;4950262;29;20793;-89
2023/12/09 04:59:18;;;;;;;42.85;21.77;;;8.30;99.90;;;;;;4934811;29;20465;-88
2023/12/09 05:01:45;;;;;;;40.77;21.53;;;8.30;99.90;;;;;;4933816;29;20993;-89
2023/12/09 05:04:11;;;;;;;47.05;22.33;;;8.30;99.90;;;;;;4934697;29;20426;-90
2023/12/09 05:06:37;;;;;;;46.00;22.75;;;8.30;99.90;;;;;;4934670;29;20414;-90
2023/12/09 05:09:02;;;;;;;47.72;22.63;;;8.30;99.90;;;;;;4957758;28;20475;-90
2023/12/09 05:11:28;;;;;;;45.40;22.13;;;8.30;99.90;;;;;;4953285;28;20428;-89
2023/12/09 05:13:54;;;;;;;44.13;21.30;;;8.30;99.90;;;;;;4954829;28;20414;-92
2023/12/09 05:16:19;;;;;;;43.67;21.10;;;8.30;99.90;;;;;;4934148;29;20844;-92
2023/12/09 05:18:45;;;;;;;38.55;20.77;;;8.30;99.90;;;;;;4933883;29;20509;-91
2023/12/09 05:21:12;;;;;;;45.67;20.38;;;8.60;99.90;;;;;;4950292;29;20911;-91
2023/12/09 05:23:38;;;;;;;47.67;21.63;;;8.40;99.90;;;;;;4938597;28;20413;-89
2023/12/09 05:26:04;;;;;;;46.47;21.23;;;8.30;99.90;;;;;;4952809;28;20412;-90
2023/12/09 05:28:30;;;;;;;44.63;20.85;;;8.30;99.90;;;;;;4953115;28;20416;-90
2023/12/09 05:30:57;;;;;;;39.80;19.95;;;8.30;99.90;;;;;;4952740;28;20809;-90
2023/12/09 05:33:23;;;;;;;43.90;19.80;;;8.30;99.90;;;;;;4953578;28;20411;-91
2023/12/09 05:35:48;;;;;;;43.30;18.55;;;8.70;99.90;;;;;;4952075;28;20420;-90
2023/12/09 05:38:14;;;;;;;38.83;18.73;;;8.30;99.90;;;;;;4941759;28;20433;-91
2023/12/09 05:40:43;;;;;;;38.20;18.60;;;8.30;99.90;;;;;;4951717;28;20876;-89
2023/12/09 05:43:09;;;;;;;38.38;18.67;;;8.30;99.90;;;;;;4958130;28;20413;-91
2023/12/09 05:45:34;;;;;;;40.53;18.97;;;8.30;99.90;;;;;;4933349;29;20944;-91
2023/12/09 05:48:00;;;;;;;37.20;18.05;;;8.30;99.90;;;;;;4933327;29;20421;-92
2023/12/09 05:50:26;;;;;;;37.83;17.55;;;8.30;99.90;;;;;;4940234;28;20553;-90
2023/12/09 05:52:51;;;;;;;36.00;17.50;;;8.30;99.90;;;;;;4951620;28;20413;-91
2023/12/09 05:55:23;;;;;;;39.00;18.13;;;8.20;99.90;;;;;;4951868;28;20511;-90
2023/12/09 05:57:49;;;;;;;38.55;18.52;;;8.30;99.90;;;;;;4951833;28;20852;-92
2023/12/09 06:00:15;;;;;;;39.65;18.38;;;8.20;99.90;;;;;;4950177;28;20467;-91
2023/12/09 06:02:43;;;;;;;39.10;18.25;;;8.20;99.90;;;;;;4967541;28;20447;-89
2023/12/09 06:05:09;;;;;;;37.75;19.35;;;8.20;99.90;;;;;;4951708;28;20424;-90
2023/12/09 06:07:37;;;;;;;40.38;18.75;;;8.10;99.90;;;;;;4951772;28;20779;-91
2023/12/09 06:10:05;;;;;;;45.08;19.25;;;8.10;99.90;;;;;;4950908;28;20479;-90
2023/12/09 06:12:32;;;;;;;42.23;18.90;;;8.00;99.90;;;;;;4947698;28;21035;-89
2023/12/09 06:14:57;;;;;;;37.33;18.45;;;8.00;99.90;;;;;;4941689;28;20435;-89
2023/12/09 06:17:23;;;;;;;41.45;19.27;;;8.30;99.90;;;;;;4945346;28;20455;-91
2023/12/09 06:19:49;;;;;;;38.67;19.85;;;8.00;99.90;;;;;;4949989;28;20411;-91
2023/12/09 06:22:15;;;;;;;42.60;19.23;;;7.90;99.90;;;;;;4948524;29;20825;-90
2023/12/09 06:24:44;;;;;;;39.53;18.77;;;8.00;99.90;;;;;;4932790;29;20509;-91
2023/12/09 06:27:10;;;;;;;43.42;19.30;;;8.00;99.90;;;;;;4931747;29;20520;-92
2023/12/09 06:29:37;;;;;;;39.92;17.85;;;8.00;99.90;;;;;;4932813;29;20418;-90
2023/12/09 06:32:04;;;;;;;39.35;17.85;;;8.30;99.90;;;;;;4933619;28;20442;-90
2023/12/09 06:34:29;;;;;;;45.30;17.85;;;8.00;99.90;;;;;;4950915;28;20475;-92
2023/12/09 06:36:55;;;;;;;34.27;16.67;;;8.00;99.90;;;;;;4950776;28;20424;-91
2023/12/09 06:39:21;;;;;;;35.53;16.80;;;8.00;99.90;;;;;;4944204;28;20788;-88
2023/12/09 06:41:48;;;;;;;37.63;17.33;;;8.00;99.90;;;;;;4935882;29;20429;-88
2023/12/09 06:44:14;;;;;;;35.60;16.73;;;8.00;99.90;;;;;;4934394;28;20576;-93
2023/12/09 06:46:40;;;;;;;37.17;17.30;;;7.90;99.90;;;;;;4951861;28;20463;-90
2023/12/09 06:49:08;;;;;;;38.03;16.55;;;8.00;99.90;;;;;;4961533;28;20471;-93
2023/12/09 06:51:34;;;;;;;38.22;16.83;;;7.90;99.90;;;;;;4927770;29;21395;-90
2023/12/09 06:54:00;;;;;;;37.13;16.75;;;7.90;99.90;;;;;;4931554;29;20461;-91
2023/12/09 06:56:26;;;;;;;34.80;15.65;;;7.90;99.90;;;;;;4943117;28;20478;-91
2023/12/09 06:58:52;;;;;;;35.90;16.03;;;7.90;99.90;;;;;;4950547;28;20748;-89
2023/12/09 07:01:28;;;;;;;34.33;15.93;;;8.10;99.90;;;;;;4950373;28;21091;-91
2023/12/09 07:03:54;;;;;;;37.13;15.65;;;7.90;99.90;;;;;;4966975;28;20452;-91
2023/12/09 07:06:24;;;;;;;32.75;16.55;;;8.00;99.90;;;;;;4951194;28;20412;-91
2023/12/09 07:08:51;;;;;;;34.37;16.17;;;7.90;99.90;;;;;;4951418;28;20508;-89
2023/12/09 07:11:17;;;;;;;29.02;15.90;;;7.80;99.90;;;;;;4950413;28;20486;-93
2023/12/09 07:13:43;;;;;;;34.47;15.02;;;8.10;99.90;;;;;;4951413;28;20412;-90
2023/12/09 07:16:10;;;;;;;34.78;15.63;;;7.90;99.90;;;;;;4950966;28;20431;-91
2023/12/09 07:18:43;;;;;;;33.90;15.07;;;7.90;99.90;;;;;;4950509;28;20416;-88
2023/12/09 07:21:12;;;;;;;36.28;16.02;;;7.90;99.90;;;;;;4932706;29;20422;-90
2023/12/09 07:23:38;;;;;;;33.72;14.60;;;7.70;99.90;;;;;;4931901;29;20409;-91
2023/12/09 07:26:04;;;;;;;31.42;15.32;;;7.80;99.90;;;;;;4947764;29;20422;-91
2023/12/09 07:28:30;;;;;;;37.30;15.70;;;7.90;99.90;;;;;;4931397;29;20414;-90
2023/12/09 07:30:56;;;;;;;36.40;15.05;;;8.10;99.90;;;;;;4932032;29;20434;-90
2023/12/09 07:33:21;;;;;;;33.47;15.33;;;7.80;99.90;;;;;;4930935;29;20410;-90
2023/12/09 07:35:47;;;;;;;35.37;15.13;;;7.90;99.90;;;;;;4948883;28;20503;-91
2023/12/09 07:38:13;;;;;;;32.10;14.88;;;7.90;99.90;;;;;;4967108;28;20475;-90
2023/12/09 07:40:39;;;;;;;33.05;13.63;;;7.90;99.90;;;;;;4958021;28;21248;-91
2023/12/09 07:43:05;;;;;;;33.95;14.25;;;8.10;99.90;;;;;;4947356;28;20419;-89
2023/12/09 07:45:30;;;;;;;35.05;14.82;;;7.90;99.90;;;;;;4950620;28;20416;-91
2023/12/09 07:47:56;;;;;;;37.42;15.20;;;8.10;99.90;;;;;;4950983;28;20416;-91
2023/12/09 07:50:22;;;;;;;35.22;13.50;;;7.90;99.90;;;;;;4950924;28;20943;-89
2023/12/09 07:52:48;;;;;;;36.13;15.15;;;7.80;99.90;;;;;;4967314;28;20408;-88
2023/12/09 07:55:15;;;;;;;32.22;14.10;;;7.80;99.90;;;;;;4950986;28;20852;-90
2023/12/09 07:57:41;;;;;;;31.95;13.05;;;8.00;99.90;;;;;;4966727;28;20427;-90
2023/12/09 08:00:08;;;;;;;29.65;12.45;;;7.90;99.90;;;;;;4951576;28;20412;-89
2023/12/09 08:02:34;;;;;;;33.35;13.65;;;7.90;99.90;;;;;;4954226;28;20415;-90
2023/12/09 08:04:59;;;;;;;35.78;12.90;;;7.90;99.90;;;;;;4954807;28;20420;-89
2023/12/09 08:07:25;;;;;;;33.23;12.43;;;7.80;99.90;;;;;;4954533;28;20485;-92
2023/12/09 08:09:51;;;;;;;29.30;11.80;;;8.20;99.90;;;;;;4954470;28;20878;-91
2023/12/09 08:12:17;;;;;;;30.83;11.70;;;7.90;99.90;;;;;;4953663;28;20836;-90
2023/12/09 08:14:43;;;;;;;31.83;11.68;;;8.00;99.90;;;;;;4954543;28;20495;-89
2023/12/09 08:17:09;;;;;;;31.27;10.88;;;7.90;99.90;;;;;;4954152;28;20899;-91
2023/12/09 08:19:34;;;;;;;29.27;10.82;;;7.90;99.90;;;;;;4951686;28;20425;-92
2023/12/09 08:22:00;;;;;;;34.78;10.70;;;8.00;99.90;;;;;;4935298;29;20424;-91
2023/12/09 08:24:26;;;;;;;27.50;10.90;;;7.90;99.90;;;;;;4934573;29;20437;-89
2023/12/09 08:26:52;;;;;;;32.13;10.13;;;7.90;99.90;;;;;;4938032;28;20413;-89
2023/12/09 08:29:17;;;;;;;26.10;9.90;;;8.10;99.90;;;;;;4953533;28;20507;-92
2023/12/09 08:31:48;;;;;;;24.48;10.02;;;7.90;99.90;;;;;;4953648;28;20502;-89
2023/12/09 08:34:18;;;;;;;28.98;9.95;;;8.10;99.90;;;;;;4954385;28;20986;-88
2023/12/09 08:36:44;;;;;;;25.40;9.38;;;8.00;99.90;;;;;;4970259;28;20844;-88
2023/12/09 08:39:10;;;;;;;25.00;8.38;;;8.00;99.90;;;;;;4950939;28;20488;-90
2023/12/09 08:41:37;;;;;;;30.17;10.20;;;8.10;99.90;;;;;;4934203;29;20449;-91
2023/12/09 08:44:03;;;;;;;29.80;9.85;;;8.00;99.90;;;;;;4934887;29;20425;-91
2023/12/09 08:46:32;;;;;;;29.67;10.60;;;8.00;99.90;;;;;;4934222;29;20901;-91
2023/12/09 08:48:58;;;;;;;26.02;9.77;;;8.00;99.90;;;;;;4934911;29;20414;-90
2023/12/09 08:51:24;;;;;;;28.83;10.45;;;8.20;99.90;;;;;;4934271;29;20444;-91
2023/12/09 08:53:50;;;;;;;29.23;9.90;;;8.00;99.90;;;;;;4934509;29;20454;-91
2023/12/09 08:56:16;;;;;;;29.13;9.90;;;8.30;99.90;;;;;;4934198;29;20548;-92
2023/12/09 08:58:41;;;;;;;28.73;10.18;;;8.00;99.90;;;;;;4934109;29;20445;-89
2023/12/09 09:01:08;;;;;;;27.58;11.10;;;8.00;99.90;;;;;;4962540;28;20416;-88
2023/12/09 09:03:34;;;;;;;30.70;10.40;;;8.20;99.90;;;;;;4953183;28;20447;-88
2023/12/09 09:06:00;;;;;;;24.77;10.15;;;8.10;99.90;;;;;;4950551;28;20484;-90
2023/12/09 09:08:25;;;;;;;24.60;9.47;;;8.10;99.90;;;;;;4933958;29;20422;-89
2023/12/09 09:10:51;;;;;;;27.80;10.37;;;8.10;99.90;;;;;;4951390;28;20475;-89
2023/12/09 09:13:17;;;;;;;24.00;9.05;;;8.10;99.90;;;;;;4968881;28;20896;-90
2023/12/09 09:15:43;;;;;;;29.95;9.95;;;8.10;99.90;;;;;;4953251;28;20507;-91
2023/12/09 09:18:08;;;;;;;26.00;9.52;;;8.10;99.90;;;;;;4953428;28;20486;-90
2023/12/09 09:20:34;;;;;;;25.10;8.93;;;8.10;99.90;;;;;;4952845;28;20420;-89
2023/12/09 09:23:00;;;;;;;23.40;8.60;;;8.20;99.90;;;;;;4952953;28;20491;-91
2023/12/09 09:25:26;;;;;;;25.10;8.40;;;8.20;99.90;;;;;;4954024;28;20485;-89
2023/12/09 09:27:52;;;;;;;26.20;8.67;;;8.20;99.90;;;;;;4934626;29;20414;-88
2023/12/09 09:30:22;;;;;;;24.00;8.75;;;8.20;99.90;;;;;;4938022;28;21002;-90
2023/12/09 09:32:47;;;;;;;24.20;7.87;;;8.70;99.90;;;;;;4968940;28;20859;-91
2023/12/09 09:35:13;;;;;;;24.40;8.10;;;8.20;99.90;;;;;;4953527;28;20528;-91
2023/12/09 09:37:39;;;;;;;25.80;8.90;;;8.10;99.90;;;;;;4952753;28;20415;-91
2023/12/09 09:40:06;;;;;;;28.60;8.18;;;8.40;99.90;;;;;;4942009;29;20417;-94
2023/12/09 09:42:43;;;;;;;24.67;7.85;;;8.20;99.90;;;;;;4917936;29;20790;-91
2023/12/09 09:45:21;;;;;;;23.63;7.30;;;8.20;99.90;;;;;;4934048;29;21018;-92
2023/12/09 09:47:49;;;;;;;21.60;7.25;;;8.20;99.90;;;;;;4933737;29;20457;-89
2023/12/09 09:50:24;;;;;;;22.73;7.53;;;8.20;99.90;;;;;;4933211;29;20442;-90
2023/12/09 09:52:50;;;;;;;24.10;7.82;;;8.10;99.90;;;;;;4933662;29;20421;-93
2023/12/09 09:55:19;;;;;;;20.25;6.45;;;8.10;99.90;;;;;;4932824;29;20425;-91
2023/12/09 09:57:47;;;;;;;23.20;6.95;;;8.20;99.90;;;;;;4933209;29;20421;-93
2023/12/09 10:00:14;;;;;;;23.30;6.80;;;8.20;99.90;;;;;;4933115;29;20422;-92
2023/12/09 10:02:53;;;;;;;18.77;6.00;;;8.10;99.90;;;;;;4933249;29;20424;-92
2023/12/09 10:05:22;;;;;;;18.93;5.97;;;8.10;99.90;;;;;;4952609;28;20881;-91
2023/12/09 10:07:48;;;;;;;19.92;6.75;;;8.20;99.90;;;;;;4952300;28;20412;-91
2023/12/09 10:10:16;;;;;;;22.88;6.20;;;8.10;99.90;;;;;;4951866;28;20502;-91
2023/12/09 10:12:42;;;;;;;22.70;6.78;;;8.60;99.90;;;;;;4967926;28;20447;-90
2023/12/09 10:15:09;;;;;;;18.08;6.78;;;8.40;99.90;;;;;;4952503;28;20499;-89
2023/12/09 10:17:35;;;;;;;17.50;6.07;;;8.20;99.90;;;;;;4967685;28;20416;-89
2023/12/09 10:20:02;;;;;;;18.05;5.70;;;8.10;99.90;;;;;;4935774;29;20409;-89
2023/12/09 10:22:28;;;;;;;18.08;6.25;;;8.20;99.90;;;;;;4933150;29;20988;-88
2023/12/09 10:24:55;;;;;;;21.52;6.25;;;8.30;99.90;;;;;;4932747;29;20513;-91
2023/12/09 10:27:25;;;;;;;21.83;5.85;;;8.40;99.90;;;;;;4933169;29;20413;-93
2023/12/09 10:29:56;;;;;;;17.92;5.57;;;8.40;99.90;;;;;;4932324;29;20422;-91
2023/12/09 10:32:23;;;;;;;19.65;5.55;;;8.40;99.90;;;;;;4949329;29;20455;-89
2023/12/09 10:34:49;;;;;;;19.95;5.50;;;8.30;99.90;;;;;;4932532;29;20417;-89
2023/12/09 10:37:19;;;;;;;16.10;4.93;;;8.60;99.90;;;;;;4932690;29;20410;-90
2023/12/09 10:39:50;;;;;;;21.57;5.43;;;8.40;99.90;;;;;;4933107;29;20417;-91
2023/12/09 10:42:15;;;;;;;17.42;4.90;;;8.60;99.90;;;;;;4932754;29;20414;-92
2023/12/09 10:44:42;;;;;;;20.37;4.67;;;8.40;99.90;;;;;;4932857;29;20418;-90
2023/12/09 10:47:08;;;;;;;17.27;4.75;;;8.50;99.90;;;;;;4932599;29;20939;-90
2023/12/09 10:49:34;;;;;;;17.17;4.75;;;8.50;99.90;;;;;;4932495;29;20422;-89
2023/12/09 10:52:00;;;;;;;15.68;4.18;;;8.50;99.90;;;;;;4932334;29;20421;-90
2023/12/09 10:54:26;;;;;;;17.52;4.80;;;8.50;99.90;;;;;;4934773;28;20461;-94
2023/12/09 10:56:52;;;;;;;20.03;4.53;;;8.60;99.90;;;;;;4951760;28;20408;-88
2023/12/09 10:59:18;;;;;;;17.17;4.18;;;8.60;99.90;;;;;;4967767;28;20427;-91
2023/12/09 11:01:48;;;;;;;17.30;4.40;;;8.60;99.90;;;;;;4967885;28;20919;-86
2023/12/09 11:04:14;;;;;;;17.27;4.23;;;8.60;99.90;;;;;;4967370;28;20995;-91
2023/12/09 11:06:44;;;;;;;17.40;4.82;;;8.60;99.90;;;;;;4952013;28;20416;-88
2023/12/09 11:09:13;;;;;;;17.27;4.72;;;8.60;99.90;;;;;;4950748;28;20946;-88
2023/12/09 11:11:41;;;;;;;16.30;4.28;;;8.60;99.90;;;;;;4967110;28;20432;-90
2023/12/09 11:14:09;;;;;;;16.80;4.45;;;8.60;99.90;;;;;;4951544;28;20408;-91
2023/12/09 11:16:42;;;;;;;16.08;3.88;;;8.70;99.90;;;;;;4941764;29;20501;-90
2023/12/09 11:19:16;;;;;;;17.73;3.25;;;8.60;99.90;;;;;;4932425;29;20469;-88
2023/12/09 11:21:46;;;;;;;16.15;3.75;;;8.50;99.90;;;;;;4932460;29;20430;-88
2023/12/09 11:24:13;;;;;;;15.63;3.50;;;8.60;99.90;;;;;;4943244;28;20420;-89
2023/12/09 11:26:41;;;;;;;14.35;3.42;;;8.60;99.90;;;;;;4951397;28;20741;-92
2023/12/09 11:29:08;;;;;;;16.33;3.80;;;8.60;99.90;;;;;;4951593;28;20414;-87
2023/12/09 11:31:46;;;;;;;13.65;3.15;;;8.40;99.90;;;;;;4967398;28;20432;-89
2023/12/09 11:34:16;;;;;;;12.90;3.33;;;8.60;99.90;;;;;;4951000;28;20467;-89
2023/12/09 11:36:44;;;;;;;14.30;3.25;;;8.60;99.90;;;;;;4954540;28;20404;-92
2023/12/09 11:39:19;;;;;;;14.50;3.22;;;8.50;99.90;;;;;;4954524;28;20431;-92
2023/12/09 11:41:46;;;;;;;12.50;3.20;;;8.60;99.90;;;;;;4971764;28;20451;-91
2023/12/09 11:44:13;;;;;;;14.77;3.87;;;8.60;99.90;;;;;;4954901;28;20435;-91
2023/12/09 11:46:39;;;;;;;12.93;3.38;;;8.80;99.90;;;;;;4946254;29;20468;-88
2023/12/09 11:49:06;;;;;;;13.98;2.83;;;8.60;99.90;;;;;;4941031;28;20827;-92
2023/12/09 11:51:36;;;;;;;14.57;3.10;;;8.60;99.90;;;;;;4970755;28;20443;-90
2023/12/09 11:54:07;;;;;;;13.13;2.95;;;8.30;99.90;;;;;;4955469;28;20412;-90
2023/12/09 11:56:33;;;;;;;13.20;2.55;;;8.80;99.90;;;;;;4953611;28;20427;-91
2023/12/09 11:58:58;;;;;;;11.18;2.80;;;8.60;99.90;;;;;;4954783;28;20483;-91
2023/12/09 12:01:26;;;;;;;11.57;2.47;;;8.60;99.90;;;;;;4954698;28;20419;-92
2023/12/09 12:03:52;;;;;;;11.73;2.70;;;8.60;99.90;;;;;;4955206;28;20415;-92
2023/12/09 12:06:19;;;;;;;11.23;2.10;;;8.60;99.90;;;;;;4955713;28;20454;-92
2023/12/09 12:08:51;;;;;;;9.15;2.22;;;9.40;99.90;;;;;;4954114;28;20907;-88
2023/12/09 12:11:18;;;;;;;11.68;2.47;;;8.70;99.90;;;;;;4953363;28;20440;-92
2023/12/09 12:13:44;;;;;;;10.40;2.40;;;8.50;99.90;;;;;;4970048;28;20408;-93
2023/12/09 12:16:11;;;;;;;11.93;2.45;;;8.60;99.90;;;;;;4947450;28;20467;-90
2023/12/09 12:18:37;;;;;;;10.20;2.20;;;8.80;99.90;;;;;;4939464;29;20410;-93
2023/12/09 12:21:04;;;;;;;10.25;2.28;;;8.80;99.90;;;;;;4950942;28;20492;-94
2023/12/09 12:23:30;;;;;;;10.05;2.42;;;8.60;99.90;;;;;;4962511;28;20473;-93
2023/12/09 12:25:56;;;;;;;8.93;2.50;;;8.90;99.90;;;;;;4951225;28;20835;-89
2023/12/09 12:28:24;;;;;;;11.57;2.42;;;8.60;99.90;;;;;;4945883;28;20421;-90
2023/12/09 12:31:00;;;;;;;10.85;2.30;;;8.60;99.90;;;;;;4944791;28;20476;-89
2023/12/09 12:33:30;;;;;;;11.93;2.22;;;8.60;99.90;;;;;;4945569;28;20432;-89
2023/12/09 12:35:58;;;;;;;10.88;2.40;;;8.60;99.90;;;;;;4933254;29;20426;-91
2023/12/09 12:38:25;;;;;;;12.27;2.17;;;8.60;99.90;;;;;;4937286;28;20442;-91